• Join FlightAware (Why Join?)
  • Login
  • US Flag 
12:42PM EDT


 

Airport Tracker/Info


-or-


 

Live Flight TrackerFlight Track Log ✈ CTL78 ✈ 17-May-2013 ✈ KYIP - KBKL

Flight Track Log - Related Links

Times and Time Zones

All times are in EDT time to prevent confusion due to time zone crossing. See the CTL78 flight status page for this flight to view local times or setup timezone preferences in your user account.

Time Position Orientation Groundspeed Altitude Reporting Facility
EDT Latitude Longitude Course Direction KTS MPH feet Rate Location/Type
05:53PM 42.2594 -83.5458 307° West 138 159 1,700  Level Cleveland Center
05:54PM 42.2728 -83.5942 290° West 130 150 3,000 1,080 Climbing Cleveland Center
05:55PM 42.2653 -83.6361 256° West 138 159 3,900 780 Climbing Cleveland Center
05:56PM 42.2433 -83.5983 128° Southeast 129 148 4,700 540 Climbing Cleveland Center
05:57PM 42.2281 -83.5500 113° Southeast 146 168 5,100 180 Climbing Cleveland Center
05:58PM 42.2108 -83.4931 112° Southeast 169 194 5,100  Level Cleveland Center
05:59PM 42.1914 -83.4333 114° Southeast 166 191 5,100  Level Cleveland Center
06:00PM 42.1739 -83.3794 114° Southeast 169 194 5,100 -60 Level Cleveland Center
06:01PM 42.1503 -83.3281 122° Southeast 165 190 5,000  Descending Cleveland Center
06:02PM 42.1306 -83.2711 115° Southeast 166 191 5,100  Climbing Cleveland Center
06:03PM 42.1092 -83.2142 117° Southeast 170 196 5,000  Descending Cleveland Center
06:04PM 42.0894 -83.1547 114° Southeast 169 194 5,100  Climbing Cleveland Center
06:05PM 42.0678 -83.0978 117° Southeast 169 194 5,100  Level Cleveland Center
06:06PM 42.0464 -83.0356 115° Southeast 171 197 5,100  Level Cleveland Center
06:08PM 42.0225 -82.9731 117° Southeast 170 196 5,100  Level Cleveland Center
06:08PM 42.0147 -82.9558 121° Southeast 171 197 5,100  Level Cleveland Center
06:09PM 41.9969 -82.9050 115° Southeast 173 199 5,100  Level Cleveland Center
06:10PM 41.9731 -82.8483 120° Southeast 173 199 5,100  Level Cleveland Center
06:11PM 41.9431 -82.7831 122° Southeast 174 200 5,100  Level Cleveland Center
06:12PM 41.9211 -82.7292 119° Southeast 173 199 5,100  Level Cleveland Center
06:13PM 41.9014 -82.6700 114° Southeast 175 201 5,100 -60 Level Cleveland Center
06:14PM 41.8794 -82.6133 117° Southeast 173 199 5,000  Descending Cleveland Center
06:15PM 41.8533 -82.5483 118° Southeast 177 204 5,100  Climbing Cleveland Center
06:16PM 41.8317 -82.4892 116° Southeast 174 200 5,100  Level Cleveland Center
06:17PM 41.8094 -82.4414 122° Southeast 177 204 5,100 -240 Level Cleveland Center
06:18PM 41.7853 -82.3792 117° Southeast 180 207 4,700 -480 Descending Cleveland Center
06:19PM 41.7572 -82.3200 122° Southeast 191 220 4,200 -480 Descending Cleveland Center
06:20PM 41.7372 -82.2639 116° Southeast 187 215 3,800 -540 Descending Cleveland Center
06:21PM 41.7108 -82.2047 121° Southeast 182 209 3,200 -360 Descending Cleveland Center
06:22PM 41.6886 -82.1458 117° Southeast 174 200 3,100 -300 Descending Cleveland Center
06:23PM 41.6644 -82.0869 119° Southeast 170 196 2,600 -300 Descending Cleveland Center
06:24PM 41.6381 -82.0278 121° Southeast 173 199 2,500 -60 Descending Cleveland Center
06:25PM 41.6178 -81.9831 121° Southeast 163 188 2,500 -300 Level Cleveland Center
06:26PM 41.5894 -81.9242 123° Southeast 175 201 2,000 -420 Descending Cleveland Center
06:27PM 41.5650 -81.8653 119° Southeast 169 194 1,700 -240 Descending Cleveland Center
06:28PM 41.5406 -81.8147 123° Southeast 161 185 1,600 -120 Descending Cleveland Center
06:29PM 41.5203 -81.7644 118° Southeast 156 180 1,500 -240 Descending Cleveland Center
06:30PM 41.5042 -81.7172 114° Southeast 124 143 1,200 -300 Descending Cleveland Center
06:32PM 41.5175 -81.6833 108° East  Level Estimated
06:39PM 41.5175 -81.6833 108° East  Level Estimated